sensor_id;sensor_type;location;lat;lon;timestamp;temperature;humidity
46482;DHT22;32193;51.446;6.792;2022-10-19T00:01:06;10.60;99.90
46482;DHT22;32193;51.446;6.792;2022-10-19T00:03:34;10.50;99.90
46482;DHT22;32193;51.446;6.792;2022-10-19T00:06:00;10.80;99.90
46482;DHT22;32193;51.446;6.792;2022-10-19T00:08:33;10.50;99.90
46482;DHT22;32193;51.446;6.792;2022-10-19T00:11:00;10.40;99.90
46482;DHT22;32193;51.446;6.792;2022-10-19T00:28:02;10.50;99.90
46482;DHT22;32193;51.446;6.792;2022-10-19T00:32:54;10.80;99.90
46482;DHT22;32193;51.446;6.792;2022-10-19T00:35:20;10.30;99.90
46482;DHT22;32193;51.446;6.792;2022-10-19T00:40:11;10.10;99.90
46482;DHT22;32193;51.446;6.792;2022-10-19T00:42:37;10.50;99.90
46482;DHT22;32193;51.446;6.792;2022-10-19T00:54:58;10.10;99.90
46482;DHT22;32193;51.446;6.792;2022-10-19T01:02:18;9.40;99.90
46482;DHT22;32193;51.446;6.792;2022-10-19T01:04:46;10.10;99.90
46482;DHT22;32193;51.446;6.792;2022-10-19T01:07:13;10.10;99.90
46482;DHT22;32193;51.446;6.792;2022-10-19T01:09:39;9.90;99.90
46482;DHT22;32193;51.446;6.792;2022-10-19T01:26:16;10.00;99.90
46482;DHT22;32193;51.446;6.792;2022-10-19T01:42:15;10.00;99.90
46482;DHT22;32193;51.446;6.792;2022-10-19T01:44:56;9.90;99.90
46482;DHT22;32193;51.446;6.792;2022-10-19T01:47:40;10.00;99.90
46482;DHT22;32193;51.446;6.792;2022-10-19T01:55:03;9.90;99.90
46482;DHT22;32193;51.446;6.792;2022-10-19T01:57:32;9.80;99.90
46482;DHT22;32193;51.446;6.792;2022-10-19T02:07:27;9.70;99.90
46482;DHT22;32193;51.446;6.792;2022-10-19T02:12:19;9.90;99.90
46482;DHT22;32193;51.446;6.792;2022-10-19T02:14:50;9.80;99.90
46482;DHT22;32193;51.446;6.792;2022-10-19T02:22:14;9.60;99.90
46482;DHT22;32193;51.446;6.792;2022-10-19T02:24:40;9.60;99.90
46482;DHT22;32193;51.446;6.792;2022-10-19T02:32:00;10.20;99.90
46482;DHT22;32193;51.446;6.792;2022-10-19T02:39:19;9.40;99.90
46482;DHT22;32193;51.446;6.792;2022-10-19T02:44:25;9.80;99.90
46482;DHT22;32193;51.446;6.792;2022-10-19T02:47:02;9.80;99.90
46482;DHT22;32193;51.446;6.792;2022-10-19T02:49:33;9.80;99.90
46482;DHT22;32193;51.446;6.792;2022-10-19T02:52:01;9.70;99.90
46482;DHT22;32193;51.446;6.792;2022-10-19T02:56:54;10.00;99.90
46482;DHT22;32193;51.446;6.792;2022-10-19T03:01:46;9.30;99.90
46482;DHT22;32193;51.446;6.792;2022-10-19T03:06:38;9.70;99.90
46482;DHT22;32193;51.446;6.792;2022-10-19T03:13:56;9.80;99.90
46482;DHT22;32193;51.446;6.792;2022-10-19T03:23:40;10.00;99.90
46482;DHT22;32193;51.446;6.792;2022-10-19T03:36:21;9.40;99.90
46482;DHT22;32193;51.446;6.792;2022-10-19T03:41:15;8.90;99.90
46482;DHT22;32193;51.446;6.792;2022-10-19T03:43:40;9.60;99.90
46482;DHT22;32193;51.446;6.792;2022-10-19T03:46:06;8.70;99.90
46482;DHT22;32193;51.446;6.792;2022-10-19T03:48:33;9.90;99.90
46482;DHT22;32193;51.446;6.792;2022-10-19T03:51:07;9.40;99.90
46482;DHT22;32193;51.446;6.792;2022-10-19T03:53:34;9.60;99.90
46482;DHT22;32193;51.446;6.792;2022-10-19T03:58:31;9.50;99.90
46482;DHT22;32193;51.446;6.792;2022-10-19T04:08:16;10.10;99.90
46482;DHT22;32193;51.446;6.792;2022-10-19T04:15:33;9.20;99.90
46482;DHT22;32193;51.446;6.792;2022-10-19T04:22:53;9.70;99.90
46482;DHT22;32193;51.446;6.792;2022-10-19T04:27:45;9.70;99.90
46482;DHT22;32193;51.446;6.792;2022-10-19T04:32:36;9.60;99.90
46482;DHT22;32193;51.446;6.792;2022-10-19T04:54:30;10.10;99.90
46482;DHT22;32193;51.446;6.792;2022-10-19T05:04:13;9.20;99.90
46482;DHT22;32193;51.446;6.792;2022-10-19T05:09:05;9.50;99.90
46482;DHT22;32193;51.446;6.792;2022-10-19T05:11:31;9.80;99.90
46482;DHT22;32193;51.446;6.792;2022-10-19T05:16:23;9.60;99.90
46482;DHT22;32193;51.446;6.792;2022-10-19T05:28:36;8.90;99.90
46482;DHT22;32193;51.446;6.792;2022-10-19T05:33:39;9.90;99.90
46482;DHT22;32193;51.446;6.792;2022-10-19T05:41:01;9.80;99.90
46482;DHT22;32193;51.446;6.792;2022-10-19T05:50:53;9.80;99.90
46482;DHT22;32193;51.446;6.792;2022-10-19T05:53:19;10.00;99.90
46482;DHT22;32193;51.446;6.792;2022-10-19T05:58:11;10.40;99.90
46482;DHT22;32193;51.446;6.792;2022-10-19T06:05:28;9.70;99.90
46482;DHT22;32193;51.446;6.792;2022-10-19T06:10:20;9.80;99.90
46482;DHT22;32193;51.446;6.792;2022-10-19T06:12:46;9.50;99.90
46482;DHT22;32193;51.446;6.792;2022-10-19T06:15:11;9.70;99.90
46482;DHT22;32193;51.446;6.792;2022-10-19T06:24:55;9.70;99.90
46482;DHT22;32193;51.446;6.792;2022-10-19T06:27:21;9.50;99.90
46482;DHT22;32193;51.446;6.792;2022-10-19T06:29:47;9.80;99.90
46482;DHT22;32193;51.446;6.792;2022-10-19T06:32:13;9.50;99.90
46482;DHT22;32193;51.446;6.792;2022-10-19T06:34:38;9.70;99.90
46482;DHT22;32193;51.446;6.792;2022-10-19T06:39:30;10.20;99.90
46482;DHT22;32193;51.446;6.792;2022-10-19T06:41:56;11.00;99.90
46482;DHT22;32193;51.446;6.792;2022-10-19T06:44:21;11.90;99.90
46482;DHT22;32193;51.446;6.792;2022-10-19T06:54:06;13.10;99.90
46482;DHT22;32193;51.446;6.792;2022-10-19T06:56:32;13.30;99.90
46482;DHT22;32193;51.446;6.792;2022-10-19T06:58:58;13.00;99.90
46482;DHT22;32193;51.446;6.792;2022-10-19T07:01:23;12.90;99.90
46482;DHT22;32193;51.446;6.792;2022-10-19T07:03:52;12.50;99.90
46482;DHT22;32193;51.446;6.792;2022-10-19T07:06:19;13.00;99.90
46482;DHT22;32193;51.446;6.792;2022-10-19T07:08:44;12.80;99.90
46482;DHT22;32193;51.446;6.792;2022-10-19T07:11:13;12.00;99.90
46482;DHT22;32193;51.446;6.792;2022-10-19T07:13:39;11.90;99.90
46482;DHT22;32193;51.446;6.792;2022-10-19T07:16:10;12.30;99.90
46482;DHT22;32193;51.446;6.792;2022-10-19T07:18:38;12.30;99.90
46482;DHT22;32193;51.446;6.792;2022-10-19T07:21:06;12.20;99.90
46482;DHT22;32193;51.446;6.792;2022-10-19T07:23:34;12.30;99.90
46482;DHT22;32193;51.446;6.792;2022-10-19T07:26:17;12.50;99.90
46482;DHT22;32193;51.446;6.792;2022-10-19T07:28:46;12.60;99.90
46482;DHT22;32193;51.446;6.792;2022-10-19T07:31:14;12.50;99.90
46482;DHT22;32193;51.446;6.792;2022-10-19T07:33:42;12.30;99.90
46482;DHT22;32193;51.446;6.792;2022-10-19T07:36:09;12.30;99.90
46482;DHT22;32193;51.446;6.792;2022-10-19T07:38:36;12.10;99.90
46482;DHT22;32193;51.446;6.792;2022-10-19T07:41:04;11.90;99.90
46482;DHT22;32193;51.446;6.792;2022-10-19T07:43:31;11.80;99.90
46482;DHT22;32193;51.446;6.792;2022-10-19T07:46:02;11.70;99.90
46482;DHT22;32193;51.446;6.792;2022-10-19T07:48:28;11.60;99.90
46482;DHT22;32193;51.446;6.792;2022-10-19T07:50:54;11.40;99.90
46482;DHT22;32193;51.446;6.792;2022-10-19T07:53:20;11.40;99.90
46482;DHT22;32193;51.446;6.792;2022-10-19T07:55:45;11.60;99.90
46482;DHT22;32193;51.446;6.792;2022-10-19T08:03:03;10.90;99.90
46482;DHT22;32193;51.446;6.792;2022-10-19T08:05:31;11.20;99.90
46482;DHT22;32193;51.446;6.792;2022-10-19T08:10:23;11.40;99.90
46482;DHT22;32193;51.446;6.792;2022-10-19T08:12:48;11.30;99.90
46482;DHT22;32193;51.446;6.792;2022-10-19T08:15:14;11.20;99.90
46482;DHT22;32193;51.446;6.792;2022-10-19T08:17:40;11.40;99.90
46482;DHT22;32193;51.446;6.792;2022-10-19T08:20:06;11.60;99.90
46482;DHT22;32193;51.446;6.792;2022-10-19T08:24:58;11.60;99.90
46482;DHT22;32193;51.446;6.792;2022-10-19T08:32:16;12.00;99.90
46482;DHT22;32193;51.446;6.792;2022-10-19T08:37:08;12.00;99.90
46482;DHT22;32193;51.446;6.792;2022-10-19T08:39:34;11.90;99.90
46482;DHT22;32193;51.446;6.792;2022-10-19T08:42:16;12.30;99.90
46482;DHT22;32193;51.446;6.792;2022-10-19T08:45:24;12.20;99.90
46482;DHT22;32193;51.446;6.792;2022-10-19T08:47:57;12.30;99.90
46482;DHT22;32193;51.446;6.792;2022-10-19T08:50:26;12.20;99.90
46482;DHT22;32193;51.446;6.792;2022-10-19T08:53:09;12.40;99.90
46482;DHT22;32193;51.446;6.792;2022-10-19T09:07:02;12.70;99.90
46482;DHT22;32193;51.446;6.792;2022-10-19T09:09:41;12.70;99.90
46482;DHT22;32193;51.446;6.792;2022-10-19T09:12:10;12.80;99.90
46482;DHT22;32193;51.446;6.792;2022-10-19T09:14:56;12.80;99.90
46482;DHT22;32193;51.446;6.792;2022-10-19T09:19:50;12.90;99.90
46482;DHT22;32193;51.446;6.792;2022-10-19T09:22:20;12.80;99.90
46482;DHT22;32193;51.446;6.792;2022-10-19T09:24:56;12.90;99.90
46482;DHT22;32193;51.446;6.792;2022-10-19T09:27:24;12.90;99.90
46482;DHT22;32193;51.446;6.792;2022-10-19T09:29:53;13.00;99.90
46482;DHT22;32193;51.446;6.792;2022-10-19T09:32:31;13.00;99.90
46482;DHT22;32193;51.446;6.792;2022-10-19T09:35:00;13.00;99.90
46482;DHT22;32193;51.446;6.792;2022-10-19T09:37:30;13.10;99.90
46482;DHT22;32193;51.446;6.792;2022-10-19T09:39:57;13.00;99.90
46482;DHT22;32193;51.446;6.792;2022-10-19T09:42:28;13.00;99.90
46482;DHT22;32193;51.446;6.792;2022-10-19T09:44:55;13.00;99.90
46482;DHT22;32193;51.446;6.792;2022-10-19T09:47:47;13.10;99.90
46482;DHT22;32193;51.446;6.792;2022-10-19T09:52:48;13.60;97.70
46482;DHT22;32193;51.446;6.792;2022-10-19T09:57:56;13.50;94.20
46482;DHT22;32193;51.446;6.792;2022-10-19T10:00:25;13.60;91.50
46482;DHT22;32193;51.446;6.792;2022-10-19T10:05:38;13.80;75.50
46482;DHT22;32193;51.446;6.792;2022-10-19T10:08:13;13.70;71.10
46482;DHT22;32193;51.446;6.792;2022-10-19T10:10:43;13.80;71.80
46482;DHT22;32193;51.446;6.792;2022-10-19T10:13:20;14.00;74.50
46482;DHT22;32193;51.446;6.792;2022-10-19T10:15:56;14.00;67.20
46482;DHT22;32193;51.446;6.792;2022-10-19T10:18:24;14.00;64.50
46482;DHT22;32193;51.446;6.792;2022-10-19T10:23:29;13.90;60.30
46482;DHT22;32193;51.446;6.792;2022-10-19T10:25:58;14.10;65.40
46482;DHT22;32193;51.446;6.792;2022-10-19T10:28:26;14.20;59.40
46482;DHT22;32193;51.446;6.792;2022-10-19T10:31:05;14.40;59.00
46482;DHT22;32193;51.446;6.792;2022-10-19T10:33:35;14.20;57.20
46482;DHT22;32193;51.446;6.792;2022-10-19T10:36:05;14.50;54.00
46482;DHT22;32193;51.446;6.792;2022-10-19T10:38:44;14.40;54.10
46482;DHT22;32193;51.446;6.792;2022-10-19T10:41:16;14.70;51.80
46482;DHT22;32193;51.446;6.792;2022-10-19T10:44:02;14.60;46.70
46482;DHT22;32193;51.446;6.792;2022-10-19T10:46:53;14.40;47.10
46482;DHT22;32193;51.446;6.792;2022-10-19T10:49:23;14.60;45.70
46482;DHT22;32193;51.446;6.792;2022-10-19T10:51:57;15.10;46.20
46482;DHT22;32193;51.446;6.792;2022-10-19T10:54:29;14.60;44.50
46482;DHT22;32193;51.446;6.792;2022-10-19T11:02:44;14.90;32.10
46482;DHT22;32193;51.446;6.792;2022-10-19T11:05:21;14.70;29.80
46482;DHT22;32193;51.446;6.792;2022-10-19T11:07:53;15.10;29.20
46482;DHT22;32193;51.446;6.792;2022-10-19T11:10:27;14.90;19.80
46482;DHT22;32193;51.446;6.792;2022-10-19T11:13:22;14.90;14.00
46482;DHT22;32193;51.446;6.792;2022-10-19T11:18:54;15.10;13.40
46482;DHT22;32193;51.446;6.792;2022-10-19T11:26:42;15.00;1.00
46482;DHT22;32193;51.446;6.792;2022-10-19T11:31:54;15.10;1.00
46482;DHT22;32193;51.446;6.792;2022-10-19T11:34:46;15.10;1.00
46482;DHT22;32193;51.446;6.792;2022-10-19T11:37:39;15.20;1.00
46482;DHT22;32193;51.446;6.792;2022-10-19T11:40:37;15.20;1.00
46482;DHT22;32193;51.446;6.792;2022-10-19T11:43:31;15.50;1.00
46482;DHT22;32193;51.446;6.792;2022-10-19T11:48:50;15.40;3.30
46482;DHT22;32193;51.446;6.792;2022-10-19T11:51:28;15.60;1.30
46482;DHT22;32193;51.446;6.792;2022-10-19T11:54:00;15.60;3.20
46482;DHT22;32193;51.446;6.792;2022-10-19T11:59:20;15.80;1.00
46482;DHT22;32193;51.446;6.792;2022-10-19T12:05:27;15.70;1.00
46482;DHT22;32193;51.446;6.792;2022-10-19T12:13:26;16.00;1.00
46482;DHT22;32193;51.446;6.792;2022-10-19T12:15:54;16.00;1.00
46482;DHT22;32193;51.446;6.792;2022-10-19T12:18:43;16.00;1.00
46482;DHT22;32193;51.446;6.792;2022-10-19T12:21:34;15.90;1.00
46482;DHT22;32193;51.446;6.792;2022-10-19T12:24:02;16.00;1.00
46482;DHT22;32193;51.446;6.792;2022-10-19T12:26:31;15.90;1.00
46482;DHT22;32193;51.446;6.792;2022-10-19T12:29:01;15.90;1.00
46482;DHT22;32193;51.446;6.792;2022-10-19T12:31:28;15.80;1.00
46482;DHT22;32193;51.446;6.792;2022-10-19T12:34:06;16.00;1.00
46482;DHT22;32193;51.446;6.792;2022-10-19T12:37:27;16.00;1.00
46482;DHT22;32193;51.446;6.792;2022-10-19T12:39:56;15.90;1.00
46482;DHT22;32193;51.446;6.792;2022-10-19T12:45:30;15.90;1.00
46482;DHT22;32193;51.446;6.792;2022-10-19T12:56:06;16.10;1.00
46482;DHT22;32193;51.446;6.792;2022-10-19T13:01:02;16.00;1.00
46482;DHT22;32193;51.446;6.792;2022-10-19T13:03:39;16.10;1.00
46482;DHT22;32193;51.446;6.792;2022-10-19T13:06:32;16.10;1.00
46482;DHT22;32193;51.446;6.792;2022-10-19T13:08:59;16.00;1.00
46482;DHT22;32193;51.446;6.792;2022-10-19T13:14:01;16.10;1.00
46482;DHT22;32193;51.446;6.792;2022-10-19T13:21:50;16.10;1.00
46482;DHT22;32193;51.446;6.792;2022-10-19T13:32:30;16.20;1.00
46482;DHT22;32193;51.446;6.792;2022-10-19T13:35:22;16.20;1.00
46482;DHT22;32193;51.446;6.792;2022-10-19T13:40:40;16.30;1.00
46482;DHT22;32193;51.446;6.792;2022-10-19T13:46:10;16.20;1.00
46482;DHT22;32193;51.446;6.792;2022-10-19T14:00:15;16.10;1.00
46482;DHT22;32193;51.446;6.792;2022-10-19T14:10:48;15.90;1.00
46482;DHT22;32193;51.446;6.792;2022-10-19T14:15:50;16.00;1.00
46482;DHT22;32193;51.446;6.792;2022-10-19T14:18:26;15.80;1.00
46482;DHT22;32193;51.446;6.792;2022-10-19T14:21:03;15.90;1.00
46482;DHT22;32193;51.446;6.792;2022-10-19T14:23:32;16.10;1.00
46482;DHT22;32193;51.446;6.792;2022-10-19T14:26:19;16.20;1.00
46482;DHT22;32193;51.446;6.792;2022-10-19T14:28:50;16.10;1.00
46482;DHT22;32193;51.446;6.792;2022-10-19T14:31:20;16.20;1.00
46482;DHT22;32193;51.446;6.792;2022-10-19T14:33:50;16.10;1.00
46482;DHT22;32193;51.446;6.792;2022-10-19T14:36:21;16.00;1.00
46482;DHT22;32193;51.446;6.792;2022-10-19T14:38:49;16.00;1.00
46482;DHT22;32193;51.446;6.792;2022-10-19T14:43:53;16.10;1.00
46482;DHT22;32193;51.446;6.792;2022-10-19T14:48:48;16.00;1.00
46482;DHT22;32193;51.446;6.792;2022-10-19T14:51:44;16.10;1.00
46482;DHT22;32193;51.446;6.792;2022-10-19T14:56:46;16.00;1.00
46482;DHT22;32193;51.446;6.792;2022-10-19T15:01:55;15.80;9.90
46482;DHT22;32193;51.446;6.792;2022-10-19T15:04:32;15.90;6.00
46482;DHT22;32193;51.446;6.792;2022-10-19T15:07:00;15.80;11.30
46482;DHT22;32193;51.446;6.792;2022-10-19T15:09:37;16.00;14.40
46482;DHT22;32193;51.446;6.792;2022-10-19T15:12:13;15.80;14.90
46482;DHT22;32193;51.446;6.792;2022-10-19T15:17:24;15.80;20.40
46482;DHT22;32193;51.446;6.792;2022-10-19T15:19:50;15.90;18.60
46482;DHT22;32193;51.446;6.792;2022-10-19T15:27:37;15.60;30.30
46482;DHT22;32193;51.446;6.792;2022-10-19T15:33:28;15.60;39.30
46482;DHT22;32193;51.446;6.792;2022-10-19T15:35:34;15.70;38.70
46482;DHT22;32193;51.446;6.792;2022-10-19T15:38:26;15.50;44.50
46482;DHT22;32193;51.446;6.792;2022-10-19T15:40:59;15.40;43.00
46482;DHT22;32193;51.446;6.792;2022-10-19T15:53:55;15.30;59.30
46482;DHT22;32193;51.446;6.792;2022-10-19T15:56:22;15.30;54.80
46482;DHT22;32193;51.446;6.792;2022-10-19T15:58:49;15.30;55.50
46482;DHT22;32193;51.446;6.792;2022-10-19T16:01:16;15.10;60.40
46482;DHT22;32193;51.446;6.792;2022-10-19T16:03:42;15.10;61.30
46482;DHT22;32193;51.446;6.792;2022-10-19T16:11:00;14.90;68.50
46482;DHT22;32193;51.446;6.792;2022-10-19T16:13:26;14.80;66.60
46482;DHT22;32193;51.446;6.792;2022-10-19T16:15:53;14.80;68.70
46482;DHT22;32193;51.446;6.792;2022-10-19T16:23:17;14.60;75.30
46482;DHT22;32193;51.446;6.792;2022-10-19T16:25:43;14.60;75.60
46482;DHT22;32193;51.446;6.792;2022-10-19T16:28:09;14.60;75.70
46482;DHT22;32193;51.446;6.792;2022-10-19T16:30:34;14.40;79.20
46482;DHT22;32193;51.446;6.792;2022-10-19T16:33:00;14.60;79.70
46482;DHT22;32193;51.446;6.792;2022-10-19T16:37:51;14.20;87.60
46482;DHT22;32193;51.446;6.792;2022-10-19T16:40:17;14.30;89.30
46482;DHT22;32193;51.446;6.792;2022-10-19T16:42:42;14.10;87.50
46482;DHT22;32193;51.446;6.792;2022-10-19T16:45:08;14.10;87.00
46482;DHT22;32193;51.446;6.792;2022-10-19T16:47:34;14.20;88.90
46482;DHT22;32193;51.446;6.792;2022-10-19T16:50:02;14.00;91.30
46482;DHT22;32193;51.446;6.792;2022-10-19T16:52:28;13.90;92.40
46482;DHT22;32193;51.446;6.792;2022-10-19T16:54:56;13.90;91.70
46482;DHT22;32193;51.446;6.792;2022-10-19T16:59:51;13.70;94.50
46482;DHT22;32193;51.446;6.792;2022-10-19T17:02:19;13.70;94.60
46482;DHT22;32193;51.446;6.792;2022-10-19T17:07:11;13.50;94.90
46482;DHT22;32193;51.446;6.792;2022-10-19T17:09:38;13.80;93.90
46482;DHT22;32193;51.446;6.792;2022-10-19T17:12:04;13.50;94.50
46482;DHT22;32193;51.446;6.792;2022-10-19T17:14:30;13.40;95.70
46482;DHT22;32193;51.446;6.792;2022-10-19T17:19:21;13.50;96.40
46482;DHT22;32193;51.446;6.792;2022-10-19T17:21:47;13.40;98.00
46482;DHT22;32193;51.446;6.792;2022-10-19T17:24:15;13.30;97.70
46482;DHT22;32193;51.446;6.792;2022-10-19T17:26:41;13.40;97.80
46482;DHT22;32193;51.446;6.792;2022-10-19T17:31:36;13.10;99.20
46482;DHT22;32193;51.446;6.792;2022-10-19T17:34:02;13.10;99.90
46482;DHT22;32193;51.446;6.792;2022-10-19T17:36:30;13.10;99.90
46482;DHT22;32193;51.446;6.792;2022-10-19T17:38:58;13.10;99.90
46482;DHT22;32193;51.446;6.792;2022-10-19T17:41:25;13.00;99.90
46482;DHT22;32193;51.446;6.792;2022-10-19T17:46:19;13.00;99.90
46482;DHT22;32193;51.446;6.792;2022-10-19T17:51:16;12.80;99.90
46482;DHT22;32193;51.446;6.792;2022-10-19T17:53:43;12.90;99.90
46482;DHT22;32193;51.446;6.792;2022-10-19T17:56:11;12.90;99.90
46482;DHT22;32193;51.446;6.792;2022-10-19T18:01:04;13.00;99.90
46482;DHT22;32193;51.446;6.792;2022-10-19T18:03:31;12.60;99.90
46482;DHT22;32193;51.446;6.792;2022-10-19T18:06:14;12.80;99.90
46482;DHT22;32193;51.446;6.792;2022-10-19T18:08:43;12.70;99.90
46482;DHT22;32193;51.446;6.792;2022-10-19T18:11:20;12.70;99.90
46482;DHT22;32193;51.446;6.792;2022-10-19T18:13:47;12.60;99.90
46482;DHT22;32193;51.446;6.792;2022-10-19T18:16:20;12.60;99.90
46482;DHT22;32193;51.446;6.792;2022-10-19T18:18:48;12.70;99.90
46482;DHT22;32193;51.446;6.792;2022-10-19T18:21:17;12.60;99.90
46482;DHT22;32193;51.446;6.792;2022-10-19T18:23:43;12.70;99.90
46482;DHT22;32193;51.446;6.792;2022-10-19T18:26:12;12.60;99.90
46482;DHT22;32193;51.446;6.792;2022-10-19T18:28:39;12.50;99.90
46482;DHT22;32193;51.446;6.792;2022-10-19T18:31:13;12.60;99.90
46482;DHT22;32193;51.446;6.792;2022-10-19T18:33:39;12.50;99.90
46482;DHT22;32193;51.446;6.792;2022-10-19T18:36:06;12.30;99.90
46482;DHT22;32193;51.446;6.792;2022-10-19T18:38:32;12.50;99.90
46482;DHT22;32193;51.446;6.792;2022-10-19T18:41:02;12.50;99.90
46482;DHT22;32193;51.446;6.792;2022-10-19T18:43:28;12.70;99.90
46482;DHT22;32193;51.446;6.792;2022-10-19T18:45:55;12.40;99.90
46482;DHT22;32193;51.446;6.792;2022-10-19T18:48:22;12.50;99.90
46482;DHT22;32193;51.446;6.792;2022-10-19T18:53:14;12.40;99.90
46482;DHT22;32193;51.446;6.792;2022-10-19T18:55:40;12.30;99.90
46482;DHT22;32193;51.446;6.792;2022-10-19T18:58:06;12.30;99.90
46482;DHT22;32193;51.446;6.792;2022-10-19T19:00:32;12.40;99.90
46482;DHT22;32193;51.446;6.792;2022-10-19T19:05:23;12.10;99.90
46482;DHT22;32193;51.446;6.792;2022-10-19T19:07:49;12.30;99.90
46482;DHT22;32193;51.446;6.792;2022-10-19T19:10:15;12.10;99.90
46482;DHT22;32193;51.446;6.792;2022-10-19T19:12:42;11.90;99.90
46482;DHT22;32193;51.446;6.792;2022-10-19T19:15:09;12.00;99.90
46482;DHT22;32193;51.446;6.792;2022-10-19T19:17:36;12.00;99.90
46482;DHT22;32193;51.446;6.792;2022-10-19T19:20:03;11.90;99.90
46482;DHT22;32193;51.446;6.792;2022-10-19T19:29:52;11.70;99.90
46482;DHT22;32193;51.446;6.792;2022-10-19T19:34:44;11.70;99.90
46482;DHT22;32193;51.446;6.792;2022-10-19T19:42:02;11.80;99.90
46482;DHT22;32193;51.446;6.792;2022-10-19T19:46:55;11.60;99.90
46482;DHT22;32193;51.446;6.792;2022-10-19T19:49:21;11.40;99.90
46482;DHT22;32193;51.446;6.792;2022-10-19T19:51:48;11.60;99.90
46482;DHT22;32193;51.446;6.792;2022-10-19T19:54:13;11.50;99.90
46482;DHT22;32193;51.446;6.792;2022-10-19T19:56:39;11.40;99.90
46482;DHT22;32193;51.446;6.792;2022-10-19T19:59:08;11.60;99.90
46482;DHT22;32193;51.446;6.792;2022-10-19T20:01:34;11.30;99.90
46482;DHT22;32193;51.446;6.792;2022-10-19T20:04:02;11.40;99.90
46482;DHT22;32193;51.446;6.792;2022-10-19T20:06:29;11.40;99.90
46482;DHT22;32193;51.446;6.792;2022-10-19T20:08:55;11.30;99.90
46482;DHT22;32193;51.446;6.792;2022-10-19T20:11:22;11.30;99.90
46482;DHT22;32193;51.446;6.792;2022-10-19T20:16:20;11.40;99.90
46482;DHT22;32193;51.446;6.792;2022-10-19T20:18:49;11.30;99.90
46482;DHT22;32193;51.446;6.792;2022-10-19T20:21:16;11.50;99.90
46482;DHT22;32193;51.446;6.792;2022-10-19T20:23:47;11.40;99.90
46482;DHT22;32193;51.446;6.792;2022-10-19T20:26:20;11.30;99.90
46482;DHT22;32193;51.446;6.792;2022-10-19T20:28:47;11.50;99.90
46482;DHT22;32193;51.446;6.792;2022-10-19T20:31:12;11.20;99.90
46482;DHT22;32193;51.446;6.792;2022-10-19T20:33:39;11.20;99.90
46482;DHT22;32193;51.446;6.792;2022-10-19T20:36:10;11.10;99.90
46482;DHT22;32193;51.446;6.792;2022-10-19T20:38:37;11.10;99.90
46482;DHT22;32193;51.446;6.792;2022-10-19T20:41:05;10.80;99.90
46482;DHT22;32193;51.446;6.792;2022-10-19T20:43:31;11.00;99.90
46482;DHT22;32193;51.446;6.792;2022-10-19T20:46:18;11.40;99.90
46482;DHT22;32193;51.446;6.792;2022-10-19T20:48:45;10.90;99.90
46482;DHT22;32193;51.446;6.792;2022-10-19T20:51:21;11.10;99.90
46482;DHT22;32193;51.446;6.792;2022-10-19T20:53:49;11.00;99.90
46482;DHT22;32193;51.446;6.792;2022-10-19T20:56:17;11.00;99.90
46482;DHT22;32193;51.446;6.792;2022-10-19T20:58:43;10.80;99.90
46482;DHT22;32193;51.446;6.792;2022-10-19T21:01:13;10.90;99.90
46482;DHT22;32193;51.446;6.792;2022-10-19T21:03:39;10.80;99.90
46482;DHT22;32193;51.446;6.792;2022-10-19T21:06:06;10.70;99.90
46482;DHT22;32193;51.446;6.792;2022-10-19T21:08:33;10.80;99.90
46482;DHT22;32193;51.446;6.792;2022-10-19T21:10:59;10.70;99.90
46482;DHT22;32193;51.446;6.792;2022-10-19T21:13:25;10.40;99.90
46482;DHT22;32193;51.446;6.792;2022-10-19T21:18:16;10.80;99.90
46482;DHT22;32193;51.446;6.792;2022-10-19T21:20:42;10.80;99.90
46482;DHT22;32193;51.446;6.792;2022-10-19T21:25:34;10.70;99.90
46482;DHT22;32193;51.446;6.792;2022-10-19T21:27:59;10.60;99.90
46482;DHT22;32193;51.446;6.792;2022-10-19T21:30:25;10.70;99.90
46482;DHT22;32193;51.446;6.792;2022-10-19T21:40:10;10.50;99.90
46482;DHT22;32193;51.446;6.792;2022-10-19T21:42:35;10.30;99.90
46482;DHT22;32193;51.446;6.792;2022-10-19T21:45:01;10.50;99.90
46482;DHT22;32193;51.446;6.792;2022-10-19T21:47:27;10.50;99.90
46482;DHT22;32193;51.446;6.792;2022-10-19T21:49:52;10.40;99.90
46482;DHT22;32193;51.446;6.792;2022-10-19T21:59:36;10.70;99.90
46482;DHT22;32193;51.446;6.792;2022-10-19T22:04:27;10.40;99.90
46482;DHT22;32193;51.446;6.792;2022-10-19T22:06:53;10.40;99.90
46482;DHT22;32193;51.446;6.792;2022-10-19T22:09:22;10.50;99.90
46482;DHT22;32193;51.446;6.792;2022-10-19T22:14:15;10.30;99.90
46482;DHT22;32193;51.446;6.792;2022-10-19T22:16:41;10.20;99.90
46482;DHT22;32193;51.446;6.792;2022-10-19T22:21:33;10.20;99.90
46482;DHT22;32193;51.446;6.792;2022-10-19T22:24:04;9.80;99.90
46482;DHT22;32193;51.446;6.792;2022-10-19T22:26:36;9.90;99.90
46482;DHT22;32193;51.446;6.792;2022-10-19T22:29:03;10.00;99.90
46482;DHT22;32193;51.446;6.792;2022-10-19T22:31:30;10.30;99.90
46482;DHT22;32193;51.446;6.792;2022-10-19T22:33:56;9.70;99.90
46482;DHT22;32193;51.446;6.792;2022-10-19T22:36:23;9.90;99.90
46482;DHT22;32193;51.446;6.792;2022-10-19T22:38:49;10.10;99.90
46482;DHT22;32193;51.446;6.792;2022-10-19T22:41:14;10.00;99.90
46482;DHT22;32193;51.446;6.792;2022-10-19T22:43:40;9.60;99.90
46482;DHT22;32193;51.446;6.792;2022-10-19T22:46:06;10.00;99.90
46482;DHT22;32193;51.446;6.792;2022-10-19T22:48:31;10.00;99.90
46482;DHT22;32193;51.446;6.792;2022-10-19T22:50:57;10.00;99.90
46482;DHT22;32193;51.446;6.792;2022-10-19T22:53:23;9.90;99.90
46482;DHT22;32193;51.446;6.792;2022-10-19T22:55:49;9.80;99.90
46482;DHT22;32193;51.446;6.792;2022-10-19T22:58:15;9.90;99.90
46482;DHT22;32193;51.446;6.792;2022-10-19T23:00:40;9.70;99.90
46482;DHT22;32193;51.446;6.792;2022-10-19T23:10:24;9.60;99.90
46482;DHT22;32193;51.446;6.792;2022-10-19T23:12:51;9.60;99.90
46482;DHT22;32193;51.446;6.792;2022-10-19T23:15:18;9.40;99.90
46482;DHT22;32193;51.446;6.792;2022-10-19T23:17:44;9.60;99.90
46482;DHT22;32193;51.446;6.792;2022-10-19T23:20:10;9.60;99.90
46482;DHT22;32193;51.446;6.792;2022-10-19T23:22:36;9.60;99.90
46482;DHT22;32193;51.446;6.792;2022-10-19T23:25:01;9.40;99.90
46482;DHT22;32193;51.446;6.792;2022-10-19T23:27:27;9.80;99.90
46482;DHT22;32193;51.446;6.792;2022-10-19T23:29:52;9.50;99.90
46482;DHT22;32193;51.446;6.792;2022-10-19T23:37:10;9.40;99.90
46482;DHT22;32193;51.446;6.792;2022-10-19T23:44:27;9.60;99.90
46482;DHT22;32193;51.446;6.792;2022-10-19T23:49:19;9.30;99.90
46482;DHT22;32193;51.446;6.792;2022-10-19T23:54:10;9.30;99.90
46482;DHT22;32193;51.446;6.792;2022-10-19T23:56:36;9.40;99.90
46482;DHT22;32193;51.446;6.792;2022-10-19T23:59:01;9.10;99.90
